Time;durP1;ratioP1;P1;durP2;ratioP2;P2;SDS_P1;SDS_P2;PMS_P1;PMS_P2;Temp;Humidity;BMP_temperature;BMP_pressure;BME280_temperature;BME280_humidity;BME280_pressure;Samples;Min_cycle;Max_cycle;Signal;HPM_P1;HPM_P2
2022/11/13 00:01:19;;;;;;;16.07;10.77;;;;;;;7.52;100.00;97114.63;5059404;28;20232;-77
2022/11/13 00:04:04;;;;;;;14.20;9.87;;;;;;;7.52;100.00;97109.25;5063427;28;20220;-77
2022/11/13 00:06:50;;;;;;;15.07;10.63;;;;;;;7.54;100.00;97101.84;5054224;28;20233;-77
2022/11/13 00:09:36;;;;;;;16.00;10.40;;;;;;;7.54;100.00;97109.06;5058312;28;20205;-78
2022/11/13 00:12:22;;;;;;;17.97;11.10;;;;;;;7.54;100.00;97117.97;5059359;28;20248;-77
2022/11/13 00:15:08;;;;;;;13.83;9.93;;;;;;;7.52;100.00;97108.44;5057657;28;20208;-77
2022/11/13 00:17:55;;;;;;;14.87;10.57;;;;;;;7.55;100.00;97097.31;5055743;28;20217;-77
2022/11/13 00:20:40;;;;;;;14.67;10.57;;;;;;;7.57;100.00;97104.13;5061136;28;20236;-77
2022/11/13 00:23:26;;;;;;;15.67;10.23;;;;;;;7.55;100.00;97106.19;5063884;28;20208;-77
2022/11/13 00:26:14;;;;;;;16.30;10.57;;;;;;;7.57;100.00;97090.69;5063544;28;20261;-77
2022/11/13 00:29:01;;;;;;;14.63;10.03;;;;;;;7.62;100.00;97108.09;5061120;28;20291;-78
2022/11/13 00:31:48;;;;;;;14.73;10.53;;;;;;;7.65;100.00;97102.34;5058724;28;20248;-77
2022/11/13 00:34:35;;;;;;;13.97;10.23;;;;;;;7.66;100.00;97090.56;5056221;28;20216;-78
2022/11/13 00:37:21;;;;;;;12.57;8.87;;;;;;;7.66;100.00;97088.69;5058298;28;20323;-76
2022/11/13 00:40:07;;;;;;;13.17;9.80;;;;;;;7.67;100.00;97084.16;5062939;28;20208;-76
2022/11/13 00:42:52;;;;;;;15.50;10.27;;;;;;;7.71;100.00;97086.28;5058986;28;20247;-79
2022/11/13 00:45:37;;;;;;;15.33;10.73;;;;;;;7.70;100.00;97094.53;5059255;28;20274;-77
2022/11/13 00:48:24;;;;;;;15.30;9.97;;;;;;;7.71;100.00;97085.44;5057421;28;20291;-78
2022/11/13 00:51:11;;;;;;;12.80;9.93;;;;;;;7.68;100.00;97083.13;5065763;28;20246;-78
2022/11/13 00:53:57;;;;;;;14.53;9.63;;;;;;;7.66;100.00;97083.31;5055491;28;20209;-77
2022/11/13 00:56:43;;;;;;;13.63;9.77;;;;;;;7.67;100.00;97084.16;5067452;28;20340;-77
2022/11/13 00:59:29;;;;;;;16.23;10.33;;;;;;;7.64;100.00;97088.09;5059356;28;20221;-78
2022/11/13 01:02:15;;;;;;;15.30;11.10;;;;;;;7.63;100.00;97082.91;5063264;28;20372;-77
2022/11/13 01:05:00;;;;;;;17.03;11.40;;;;;;;7.60;100.00;97082.25;5061643;28;20311;-77
2022/11/13 01:07:47;;;;;;;15.00;10.67;;;;;;;7.63;100.00;97078.34;5060324;28;20228;-77
2022/11/13 01:10:34;;;;;;;14.47;10.60;;;;;;;7.59;100.00;97074.38;5058842;28;20237;-78
2022/11/13 01:13:20;;;;;;;15.33;10.73;;;;;;;7.63;100.00;97074.84;5062203;28;20294;-77
2022/11/13 01:16:07;;;;;;;14.20;10.50;;;;;;;7.62;100.00;97078.53;5063111;28;20212;-76
2022/11/13 01:18:54;;;;;;;15.63;11.03;;;;;;;7.52;100.00;97071.63;5063215;28;20220;-76
2022/11/13 01:21:40;;;;;;;15.60;11.07;;;;;;;7.35;100.00;97072.94;5061573;28;20212;-77
2022/11/13 01:24:26;;;;;;;14.30;10.27;;;;;;;7.30;100.00;97072.69;5059680;28;20240;-77
2022/11/13 01:27:14;;;;;;;16.30;11.80;;;;;;;7.29;100.00;97065.66;5066626;28;20271;-77
2022/11/13 01:29:59;;;;;;;17.20;10.43;;;;;;;7.25;100.00;97061.66;5052627;28;20217;-77
2022/11/13 01:32:44;;;;;;;14.63;10.73;;;;;;;7.28;100.00;97058.59;5059006;28;20267;-77
2022/11/13 01:35:30;;;;;;;15.37;11.37;;;;;;;7.33;100.00;97056.16;5055441;28;20244;-77
2022/11/13 01:38:16;;;;;;;16.07;11.20;;;;;;;7.35;100.00;97054.13;5061588;28;20212;-77
2022/11/13 01:41:04;;;;;;;15.27;11.20;;;;;;;7.40;100.00;97046.28;5061651;28;20208;-77
2022/11/13 01:43:51;;;;;;;16.67;11.27;;;;;;;7.47;100.00;97047.22;5068278;28;20229;-78
2022/11/13 01:46:41;;;;;;;14.50;10.37;;;;;;;7.44;100.00;97042.22;5065326;28;20478;-77
2022/11/13 01:49:30;;;;;;;15.33;10.80;;;;;;;7.43;100.00;97039.72;5054854;28;20220;-77
2022/11/13 01:52:19;;;;;;;16.10;11.03;;;;;;;7.32;100.00;97027.63;5065428;28;20328;-77
2022/11/13 01:55:11;;;;;;;16.73;11.23;;;;;;;7.26;100.00;97023.03;5064388;28;20231;-77
2022/11/13 01:57:59;;;;;;;15.43;11.30;;;;;;;7.22;100.00;97027.16;5058802;28;20217;-77
2022/11/13 02:00:45;;;;;;;15.43;11.00;;;;;;;7.18;100.00;97010.56;5066433;28;20221;-76
2022/11/13 02:03:30;;;;;;;15.40;11.40;;;;;;;7.16;100.00;97011.78;5066044;28;20370;-77
2022/11/13 02:06:17;;;;;;;17.83;11.10;;;;;;;7.14;100.00;96997.75;5058899;28;20240;-78
2022/11/13 02:09:02;;;;;;;15.67;10.83;;;;;;;7.16;100.00;96992.97;5060322;28;20220;-77
2022/11/13 02:11:48;;;;;;;13.90;10.10;;;;;;;7.23;100.00;96993.88;5055332;28;20232;-77
2022/11/13 02:14:38;;;;;;;14.80;9.90;;;;;;;7.32;100.00;96987.34;5062321;28;20211;-77
2022/11/13 02:17:30;;;;;;;13.27;9.70;;;;;;;7.35;100.00;96986.94;5060156;28;20273;-78
2022/11/13 02:20:20;;;;;;;15.23;10.87;;;;;;;7.39;100.00;96980.19;5062712;28;20208;-77
2022/11/13 02:23:17;;;;;;;15.27;10.53;;;;;;;7.36;100.00;96980.56;5065043;28;20209;-77
2022/11/13 02:26:05;;;;;;;12.73;9.30;;;;;;;7.39;100.00;96976.66;5057924;28;20266;-76
2022/11/13 02:28:52;;;;;;;12.30;8.47;;;;;;;7.40;100.00;96975.63;5056331;28;20232;-78
2022/11/13 02:31:37;;;;;;;12.77;8.90;;;;;;;7.41;100.00;96983.47;5063387;28;20299;-78
2022/11/13 02:34:23;;;;;;;12.33;8.97;;;;;;;7.36;100.00;96979.72;5057757;28;20224;-78
2022/11/13 02:37:08;;;;;;;12.60;9.03;;;;;;;7.32;100.00;96976.59;5068653;28;20275;-77
2022/11/13 02:39:55;;;;;;;12.37;9.00;;;;;;;7.29;100.00;96979.69;5066303;28;20208;-77
2022/11/13 02:42:41;;;;;;;14.07;9.63;;;;;;;7.22;100.00;96971.56;5070163;28;20217;-77
2022/11/13 02:45:27;;;;;;;14.07;8.87;;;;;;;7.19;100.00;96971.13;5066109;28;20285;-78
2022/11/13 02:48:12;;;;;;;24.87;14.80;;;;;;;7.18;100.00;96975.66;5061499;28;20310;-77
2022/11/13 02:50:59;;;;;;;12.30;8.73;;;;;;;7.20;100.00;96965.56;5059809;28;20287;-77
2022/11/13 02:53:44;;;;;;;11.50;8.47;;;;;;;7.19;100.00;96971.13;5065913;28;20207;-76
2022/11/13 02:56:30;;;;;;;11.27;7.73;;;;;;;7.15;100.00;96962.59;5059036;28;20220;-77
2022/11/13 02:59:17;;;;;;;12.80;9.07;;;;;;;7.10;100.00;96964.22;5064984;28;20212;-76
2022/11/13 03:02:02;;;;;;;14.37;9.67;;;;;;;7.10;100.00;96962.38;5060766;28;20286;-78
2022/11/13 03:04:48;;;;;;;16.70;9.03;;;;;;;7.11;100.00;96960.53;5063111;28;20213;-77
2022/11/13 03:07:33;;;;;;;14.03;9.73;;;;;;;7.17;100.00;96965.09;5065749;28;20229;-77
2022/11/13 03:10:18;;;;;;;13.37;9.33;;;;;;;7.09;100.00;96941.06;5059323;28;20241;-77
2022/11/13 03:13:04;;;;;;;15.23;9.77;;;;;;;7.10;100.00;96953.47;5058198;28;20205;-77
2022/11/13 03:15:51;;;;;;;15.10;9.60;;;;;;;7.07;100.00;96952.00;5064048;28;20263;-77
2022/11/13 03:18:37;;;;;;;15.20;9.57;;;;;;;7.04;100.00;96933.63;5060389;28;20270;-77
2022/11/13 03:21:22;;;;;;;15.43;9.70;;;;;;;7.03;100.00;96941.84;5066165;28;20220;-77
2022/11/13 03:24:08;;;;;;;15.37;9.53;;;;;;;7.01;100.00;96936.69;5062704;28;20259;-77
2022/11/13 03:26:55;;;;;;;16.37;9.73;;;;;;;7.02;100.00;96940.19;5068757;28;20291;-78
2022/11/13 03:29:40;;;;;;;16.20;10.13;;;;;;;7.01;100.00;96935.84;5068253;28;20227;-77
2022/11/13 03:32:27;;;;;;;14.67;9.37;;;;;;;7.03;100.00;96936.47;5061209;28;20240;-76
2022/11/13 03:35:13;;;;;;;14.67;10.23;;;;;;;7.02;100.00;96937.50;5067008;28;20259;-77
2022/11/13 03:37:58;;;;;;;16.33;9.93;;;;;;;7.01;100.00;96935.84;5062177;28;20210;-77
2022/11/13 03:40:44;;;;;;;17.20;10.23;;;;;;;6.94;100.00;96924.22;5061976;28;20220;-77
2022/11/13 03:43:30;;;;;;;13.83;9.73;;;;;;;6.95;100.00;96928.56;5063803;28;20255;-77
2022/11/13 03:46:16;;;;;;;16.27;10.03;;;;;;;6.90;100.00;96928.31;5058913;28;20235;-78
2022/11/13 03:49:02;;;;;;;14.07;9.17;;;;;;;6.84;100.00;96922.69;5058034;28;20230;-78
2022/11/13 03:51:48;;;;;;;13.57;9.13;;;;;;;6.77;100.00;96931.72;5057896;28;20216;-78
2022/11/13 03:54:34;;;;;;;12.67;8.37;;;;;;;6.68;100.00;96911.38;5065074;28;20224;-76
2022/11/13 03:57:20;;;;;;;15.03;9.27;;;;;;;6.71;100.00;96922.59;5069759;28;20224;-77
2022/11/13 04:00:06;;;;;;;13.77;8.40;;;;;;;6.72;100.00;96921.53;5067295;28;20203;-78
2022/11/13 04:02:52;;;;;;;14.97;8.70;;;;;;;6.74;100.00;96924.88;5055789;28;20209;-77
2022/11/13 04:05:39;;;;;;;16.60;9.80;;;;;;;6.74;100.00;96927.53;5062481;28;20217;-78
2022/11/13 04:08:24;;;;;;;14.83;9.23;;;;;;;6.75;100.00;96914.97;5063890;28;20300;-77
2022/11/13 04:11:12;;;;;;;15.37;9.33;;;;;;;6.73;100.00;96909.78;5065339;28;20232;-78
2022/11/13 04:13:57;;;;;;;12.77;8.87;;;;;;;6.65;100.00;96904.53;5059155;28;20224;-77
2022/11/13 04:16:43;;;;;;;13.70;8.87;;;;;;;6.64;100.00;96905.56;5059576;28;20235;-78
2022/11/13 04:19:29;;;;;;;12.37;7.97;;;;;;;6.63;100.00;96898.56;5057186;28;20332;-77
2022/11/13 04:22:15;;;;;;;14.57;9.57;;;;;;;6.54;100.00;96888.97;5064635;28;20246;-77
2022/11/13 04:25:02;;;;;;;12.33;8.47;;;;;;;6.58;100.00;96890.25;5051089;28;20244;-78
2022/11/13 04:27:49;;;;;;;13.20;8.60;;;;;;;6.60;100.00;96882.84;5062266;28;20221;-77
2022/11/13 04:30:34;;;;;;;12.93;8.43;;;;;;;6.63;100.00;96881.63;5061360;28;20201;-77
2022/11/13 04:33:20;;;;;;;11.97;8.07;;;;;;;6.60;100.00;96880.16;5063974;28;20289;-77
2022/11/13 04:36:07;;;;;;;12.07;8.10;;;;;;;6.59;100.00;96878.50;5063378;28;20287;-76
2022/11/13 04:38:54;;;;;;;10.87;7.47;;;;;;;6.65;100.00;96874.19;5058847;28;20204;-77
2022/11/13 04:44:43;;;;;;;11.70;7.80;;;;;;;6.70;100.00;96871.78;5057136;28;20279;-77
2022/11/13 04:47:29;;;;;;;12.00;7.63;;;;;;;6.71;100.00;96868.06;5063234;28;20232;-77
2022/11/13 04:50:16;;;;;;;13.10;8.07;;;;;;;6.68;100.00;96865.78;5053949;28;20279;-76
2022/11/13 04:53:01;;;;;;;11.83;7.97;;;;;;;6.66;100.00;96865.97;5061870;28;20216;-78
2022/11/13 04:55:48;;;;;;;12.40;7.97;;;;;;;6.66;100.00;96865.97;5055447;28;20312;-77
2022/11/13 04:58:34;;;;;;;12.10;7.73;;;;;;;6.72;100.00;96862.50;5059529;28;20212;-77
2022/11/13 05:01:20;;;;;;;10.53;7.63;;;;;;;6.73;100.00;96856.09;5059647;28;20212;-76
2022/11/13 05:04:06;;;;;;;11.43;7.73;;;;;;;6.77;100.00;96852.03;5059809;28;20283;-77
2022/11/13 05:06:51;;;;;;;12.97;7.80;;;;;;;6.71;100.00;96847.44;5060190;28;20216;-77
2022/11/13 05:09:36;;;;;;;11.57;8.37;;;;;;;6.64;100.00;96851.06;5059137;28;20236;-78
2022/11/13 05:12:24;;;;;;;12.40;8.83;;;;;;;6.63;100.00;96855.63;5061710;28;20222;-76
2022/11/13 05:15:09;;;;;;;12.23;8.13;;;;;;;6.58;100.00;96847.31;5060669;28;20344;-77
2022/11/13 05:17:55;;;;;;;13.00;8.40;;;;;;;6.52;100.00;96842.72;5062181;28;20216;-77
2022/11/13 05:20:41;;;;;;;11.80;7.50;;;;;;;6.50;100.00;96846.63;5065224;28;20216;-77
2022/11/13 05:23:27;;;;;;;11.87;7.57;;;;;;;6.50;100.00;96833.19;5055466;28;20287;-76
2022/11/13 05:26:14;;;;;;;13.10;8.43;;;;;;;6.50;100.00;96839.41;5060275;28;20250;-78
2022/11/13 05:29:01;;;;;;;12.20;8.40;;;;;;;6.46;100.00;96832.78;5063639;28;20267;-77
2022/11/13 05:31:49;;;;;;;11.30;8.17;;;;;;;6.43;100.00;96828.63;5063443;28;20220;-78
2022/11/13 05:34:34;;;;;;;12.13;8.40;;;;;;;6.44;100.00;96826.75;5062191;28;20229;-76
2022/11/13 05:37:20;;;;;;;10.30;7.87;;;;;;;6.41;100.00;96824.44;5060838;28;20367;-77
2022/11/13 05:40:06;;;;;;;10.50;8.10;;;;;;;6.38;100.00;96822.19;5067497;28;20209;-77
2022/11/13 05:42:53;;;;;;;12.20;7.90;;;;;;;6.33;100.00;96828.09;5062407;28;20208;-76
2022/11/13 05:45:40;;;;;;;11.07;7.67;;;;;;;6.37;100.00;96828.56;5060946;28;20212;-77
2022/11/13 05:48:25;;;;;;;11.63;7.80;;;;;;;6.37;100.00;96828.56;5063010;28;20224;-77
2022/11/13 05:51:13;;;;;;;12.40;8.07;;;;;;;6.39;100.00;96823.81;5065608;28;20258;-79
2022/11/13 05:54:00;;;;;;;13.23;7.77;;;;;;;6.38;100.00;96824.84;5058257;28;20212;-76
2022/11/13 05:56:46;;;;;;;11.57;7.40;;;;;;;6.41;100.00;96829.81;5058753;28;20213;-78
2022/11/13 05:59:32;;;;;;;12.30;6.90;;;;;;;6.40;100.00;96822.78;5054940;28;20225;-76
2022/11/13 06:02:19;;;;;;;10.33;7.60;;;;;;;6.34;100.00;96819.03;5059487;28;20287;-76
2022/11/13 06:05:05;;;;;;;10.40;7.23;;;;;;;6.29;100.00;96820.66;5060343;28;20200;-76
2022/11/13 06:07:51;;;;;;;10.77;7.73;;;;;;;6.30;100.00;96820.44;5060297;28;20213;-78
2022/11/13 06:10:38;;;;;;;11.53;8.00;;;;;;;6.35;100.00;96820.69;5060751;28;20260;-78
2022/11/13 06:13:24;;;;;;;11.17;7.57;;;;;;;6.36;100.00;96822.38;5059319;28;20240;-77
2022/11/13 06:16:12;;;;;;;11.93;8.10;;;;;;;6.30;100.00;96817.75;5068035;28;20224;-77
2022/11/13 06:19:00;;;;;;;12.63;8.60;;;;;;;6.28;100.00;96814.44;5066592;28;20373;-77
2022/11/13 06:21:45;;;;;;;10.40;6.93;;;;;;;6.28;100.00;96824.34;5063080;28;20217;-76
2022/11/13 06:24:31;;;;;;;11.00;7.33;;;;;;;6.22;100.00;96811.69;5063275;28;20236;-77
2022/11/13 06:27:17;;;;;;;10.23;6.90;;;;;;;6.18;100.00;96823.81;5067169;28;20216;-76
2022/11/13 06:30:03;;;;;;;12.63;7.93;;;;;;;6.18;100.00;96808.56;5054541;28;20220;-77
2022/11/13 06:32:52;;;;;;;11.10;7.27;;;;;;;6.20;100.00;96806.53;5064677;28;20231;-77
2022/11/13 06:35:39;;;;;;;9.60;7.30;;;;;;;6.15;100.00;96802.75;5063600;28;20290;-76
2022/11/13 06:38:25;;;;;;;11.97;7.87;;;;;;;6.16;100.00;96801.72;5064745;28;20232;-77
2022/11/13 06:41:12;;;;;;;10.10;7.33;;;;;;;6.16;100.00;96799.88;5063407;28;20238;-77
2022/11/13 06:43:58;;;;;;;10.40;7.47;;;;;;;6.15;100.00;96800.06;5064713;28;20230;-77
2022/11/13 06:46:44;;;;;;;11.90;7.77;;;;;;;6.17;100.00;96796.19;5060943;28;20230;-77
2022/11/13 06:49:31;;;;;;;9.77;7.13;;;;;;;6.15;100.00;96797.38;5058880;28;20264;-76
2022/11/13 06:52:18;;;;;;;12.70;7.50;;;;;;;6.21;100.00;96785.91;5064231;28;20785;-77
2022/11/13 06:55:05;;;;;;;11.73;8.17;;;;;;;6.17;100.00;96784.63;5065140;28;20319;-76
2022/11/13 06:57:51;;;;;;;12.23;7.90;;;;;;;6.15;100.00;96783.97;5067294;28;20216;-77
2022/11/13 07:00:36;;;;;;;11.97;7.87;;;;;;;6.21;100.00;96786.72;5069075;28;20213;-77
2022/11/13 07:03:23;;;;;;;11.30;7.13;;;;;;;6.27;100.00;96780.59;5065064;28;20209;-76
2022/11/13 07:06:12;;;;;;;11.97;7.63;;;;;;;6.18;100.00;96780.94;5059093;28;20214;-77
2022/11/13 07:09:00;;;;;;;11.17;7.47;;;;;;;6.18;100.00;96765.66;5064850;28;20236;-76
2022/11/13 07:11:45;;;;;;;9.63;6.87;;;;;;;6.20;100.00;96763.63;5060408;28;20240;-77
2022/11/13 07:14:31;;;;;;;8.93;6.43;;;;;;;6.18;100.00;96751.44;5062385;28;20209;-77
2022/11/13 07:17:17;;;;;;;10.43;7.10;;;;;;;6.10;100.00;96762.28;5058260;28;20237;-79
2022/11/13 07:20:03;;;;;;;12.63;7.47;;;;;;;6.04;100.00;96753.13;5067469;28;20283;-75
2022/11/13 07:22:48;;;;;;;8.80;6.90;;;;;;;6.05;100.00;96754.81;5055367;28;20220;-77
2022/11/13 07:25:36;;;;;;;11.43;8.20;;;;;;;6.03;100.00;96754.19;5062718;28;20315;-76
2022/11/13 07:28:22;;;;;;;12.43;7.47;;;;;;;6.08;100.00;96747.22;5062825;28;20216;-77
2022/11/13 07:31:09;;;;;;;10.47;6.73;;;;;;;6.14;100.00;96759.00;5065015;28;20208;-77
2022/11/13 07:33:55;;;;;;;8.87;6.73;;;;;;;6.11;100.00;96748.69;5062718;28;20204;-76
2022/11/13 07:36:41;;;;;;;11.50;7.83;;;;;;;6.13;100.00;96745.78;5069160;28;20260;-77
2022/11/13 07:39:27;;;;;;;11.80;7.60;;;;;;;6.14;100.00;96744.78;5068000;28;20475;-77
2022/11/13 07:42:14;;;;;;;11.73;7.70;;;;;;;6.10;100.00;96746.19;5060211;28;20209;-77
2022/11/13 07:45:01;;;;;;;9.93;7.03;;;;;;;6.02;100.00;96734.59;5054709;28;20209;-76
2022/11/13 07:47:47;;;;;;;12.87;7.70;;;;;;;6.06;100.00;96738.53;5057816;28;20241;-76
2022/11/13 07:50:37;;;;;;;11.67;7.67;;;;;;;6.07;100.00;96732.16;5057534;28;20359;-77
2022/11/13 07:53:22;;;;;;;10.67;7.13;;;;;;;5.99;100.00;96740.31;5057823;28;20258;-77
2022/11/13 07:56:09;;;;;;;10.37;6.67;;;;;;;5.96;100.00;96740.69;5060405;28;20204;-76
2022/11/13 07:58:56;;;;;;;9.40;6.50;;;;;;;5.98;100.00;96732.47;5064204;28;20336;-77
2022/11/13 08:01:41;;;;;;;14.30;8.93;;;;;;;6.07;100.00;96731.31;5058353;28;20219;-77
2022/11/13 08:04:28;;;;;;;11.57;7.10;;;;;;;6.08;100.00;96757.94;5057786;28;20216;-78
2022/11/13 08:07:14;;;;;;;11.13;7.07;;;;;;;6.13;100.00;96752.00;5062260;28;20282;-76
2022/11/13 08:09:59;;;;;;;11.43;7.27;;;;;;;6.13;100.00;96760.03;5066375;28;20235;-76
2022/11/13 08:12:46;;;;;;;12.27;7.53;;;;;;;6.20;100.00;96754.75;5062879;28;20267;-76
2022/11/13 08:15:34;;;;;;;9.17;6.03;;;;;;;6.20;100.00;96757.44;5057920;28;20209;-79
2022/11/13 08:18:20;;;;;;;8.90;6.50;;;;;;;6.20;100.00;96768.16;5060616;28;20216;-77
2022/11/13 08:21:06;;;;;;;11.27;7.07;;;;;;;6.17;100.00;96750.59;5067884;28;20212;-77
2022/11/13 08:23:52;;;;;;;9.80;6.60;;;;;;;6.18;100.00;96749.59;5060008;28;20224;-77
2022/11/13 08:26:38;;;;;;;10.90;6.63;;;;;;;6.21;100.00;96738.44;5058375;28;20208;-76
2022/11/13 08:29:24;;;;;;;12.63;8.10;;;;;;;6.25;100.00;96739.75;5069075;28;20347;-77
2022/11/13 08:32:14;;;;;;;10.57;7.20;;;;;;;6.33;100.00;96733.41;5057837;28;20235;-77
2022/11/13 08:34:59;;;;;;;9.23;6.67;;;;;;;6.32;100.00;96737.09;5057057;28;20210;-77
2022/11/13 08:37:45;;;;;;;11.53;7.37;;;;;;;6.36;100.00;96736.53;5056562;28;20223;-77
2022/11/13 08:40:31;;;;;;;10.97;6.67;;;;;;;6.43;100.00;96724.00;5056951;28;20224;-77
2022/11/13 08:43:18;;;;;;;10.40;7.03;;;;;;;6.41;100.00;96728.72;5062666;28;20212;-78
2022/11/13 08:46:03;;;;;;;9.60;6.63;;;;;;;6.43;100.00;96720.50;5052138;28;20284;-76
2022/11/13 08:48:50;;;;;;;10.83;7.50;;;;;;;6.46;100.00;96714.75;5060647;28;20201;-77
2022/11/13 08:51:36;;;;;;;11.73;7.70;;;;;;;6.45;100.00;96708.53;5056775;28;20217;-77
2022/11/13 08:54:21;;;;;;;11.73;7.07;;;;;;;6.46;100.00;96712.06;5064812;28;20220;-76
2022/11/13 08:57:07;;;;;;;16.00;7.60;;;;;;;6.41;100.00;96701.06;5058705;28;20243;-77
2022/11/13 08:59:52;;;;;;;10.03;7.10;;;;;;;6.43;100.00;96701.72;5052841;28;20212;-79
2022/11/13 09:02:38;;;;;;;13.03;7.70;;;;;;;6.49;100.00;96711.66;5056113;28;20216;-76
2022/11/13 09:05:25;;;;;;;10.73;7.70;;;;;;;6.58;100.00;96707.78;5057622;28;20295;-79
2022/11/13 09:08:10;;;;;;;10.90;7.43;;;;;;;6.60;100.00;96705.75;5065605;28;20217;-75
2022/11/13 09:11:02;;;;;;;11.37;7.60;;;;;;;6.65;100.00;96716.69;5059875;28;20290;-75
2022/11/13 09:13:47;;;;;;;13.80;8.03;;;;;;;6.74;100.00;96714.69;5060335;28;20221;-75
2022/11/13 09:16:32;;;;;;;11.57;7.70;;;;;;;6.75;100.00;96714.50;5065635;28;20232;-76
2022/11/13 09:19:19;;;;;;;12.43;8.53;;;;;;;6.70;100.00;96705.41;5056814;28;20308;-75
2022/11/13 09:22:06;;;;;;;11.97;8.20;;;;;;;6.70;100.00;96694.66;5059176;28;20251;-75
2022/11/13 09:24:51;;;;;;;15.73;8.63;;;;;;;6.74;100.00;96701.28;5063395;28;20315;-75
2022/11/13 09:27:37;;;;;;;12.13;7.47;;;;;;;6.70;100.00;96700.03;5065483;28;20259;-76
2022/11/13 09:30:23;;;;;;;11.67;7.70;;;;;;;6.87;100.00;96704.06;5054193;28;20236;-76
2022/11/13 09:33:14;;;;;;;11.87;7.57;;;;;;;6.83;100.00;96711.66;5055855;28;20208;-76
2022/11/13 09:36:00;;;;;;;11.90;7.30;;;;;;;6.98;100.00;96702.63;5062055;28;20227;-76
2022/11/13 09:38:47;;;;;;;12.13;7.90;;;;;;;7.14;100.00;96707.69;5064369;28;20221;-77
2022/11/13 09:41:38;;;;;;;13.77;7.50;;;;;;;7.17;100.00;96707.28;5067912;28;20216;-76
2022/11/13 09:44:30;;;;;;;10.27;6.80;;;;;;;7.16;100.00;96711.00;5062718;28;20220;-77
2022/11/13 09:47:20;;;;;;;14.20;8.47;;;;;;;7.12;100.00;96704.38;5061799;28;20205;-79
2022/11/13 09:50:16;;;;;;;11.87;8.03;;;;;;;7.09;100.00;96702.09;5063220;28;20276;-76
2022/11/13 09:53:04;;;;;;;11.30;8.03;;;;;;;7.18;100.00;96676.72;5061714;28;20217;-76
2022/11/13 09:55:57;;;;;;;13.70;9.10;;;;;;;7.28;100.00;96679.84;5060487;28;20217;-77
2022/11/13 09:58:50;;;;;;;12.50;7.77;;;;;;;7.25;100.00;96680.25;5058667;28;20343;-77
2022/11/13 10:01:46;;;;;;;13.37;8.77;;;;;;;7.32;100.00;96656.91;5057063;28;20341;-76
2022/11/13 10:04:46;;;;;;;11.80;8.03;;;;;;;7.38;100.00;96645.38;5070461;28;20251;-77
2022/11/13 10:07:39;;;;;;;12.40;7.77;;;;;;;7.53;100.00;96645.19;5057865;28;20295;-76
2022/11/13 10:10:39;;;;;;;11.57;7.53;;;;;;;7.63;100.00;96636.75;5071151;28;20240;-76
2022/11/13 10:13:31;;;;;;;13.43;8.63;;;;;;;7.75;100.00;96625.16;5058641;28;20212;-77
2022/11/13 10:16:28;;;;;;;12.83;9.00;;;;;;;7.86;100.00;96626.41;5066806;28;20237;-76
2022/11/13 10:19:19;;;;;;;11.57;8.23;;;;;;;8.03;100.00;96624.97;5066374;28;20243;-77
2022/11/13 10:22:13;;;;;;;14.27;9.10;;;;;;;8.33;100.00;96630.78;5068431;28;20200;-76
2022/11/13 10:25:05;;;;;;;12.13;8.17;;;;;;;8.57;100.00;96618.53;5066857;28;20267;-76
2022/11/13 10:27:55;;;;;;;12.57;8.50;;;;;;;9.10;100.00;96616.47;5071086;28;20208;-77
2022/11/13 10:30:42;;;;;;;15.47;8.23;;;;;;;9.45;100.00;96615.00;5062395;28;20303;-77
2022/11/13 10:33:28;;;;;;;11.73;7.77;;;;;;;9.75;100.00;96603.63;5058806;28;20263;-78
2022/11/13 10:36:24;;;;;;;11.13;7.87;;;;;;;10.12;100.00;96607.28;5066395;28;20228;-77
2022/11/13 10:39:10;;;;;;;9.43;6.97;;;;;;;10.35;100.00;96612.91;5066562;28;20222;-77
2022/11/13 10:41:56;;;;;;;11.20;7.53;;;;;;;10.42;100.00;96618.25;5056314;28;20208;-77
2022/11/13 10:44:53;;;;;;;8.80;6.43;;;;;;;10.80;100.00;96604.56;5063512;28;20351;-78
2022/11/13 10:47:45;;;;;;;10.57;7.40;;;;;;;10.78;100.00;96602.06;5065578;28;20209;-77
2022/11/13 10:50:32;;;;;;;10.27;7.20;;;;;;;10.69;100.00;96599.88;5063502;28;20278;-78
2022/11/13 10:53:19;;;;;;;10.37;7.17;;;;;;;10.67;100.00;96599.28;5063360;28;20216;-77
2022/11/13 10:56:14;;;;;;;10.83;7.83;;;;;;;11.00;100.00;96602.41;5070535;28;20208;-77
2022/11/13 10:59:02;;;;;;;9.50;6.97;;;;;;;11.29;100.00;96598.13;5058626;28;20212;-78
2022/11/13 11:01:48;;;;;;;10.00;7.03;;;;;;;11.65;100.00;96586.38;5060280;28;20323;-78
2022/11/13 11:04:35;;;;;;;9.37;7.07;;;;;;;11.57;100.00;96597.53;5061032;28;20204;-79
2022/11/13 11:07:24;;;;;;;10.30;7.10;;;;;;;11.87;100.00;96592.91;5064008;28;20213;-77
2022/11/13 11:10:22;;;;;;;10.37;7.23;;;;;;;12.13;100.00;96584.38;5064852;28;20229;-77
2022/11/13 11:13:12;;;;;;;9.80;7.03;;;;;;;12.32;100.00;96584.25;5061461;28;20246;-77
2022/11/13 11:16:01;;;;;;;10.30;7.00;;;;;;;12.45;100.00;96581.31;5064931;28;20331;-78
2022/11/13 11:18:53;;;;;;;12.87;7.97;;;;;;;12.47;100.00;96579.19;5067082;28;20224;-78
2022/11/13 11:21:42;;;;;;;11.33;7.73;;;;;;;12.49;100.00;96568.94;5065156;28;20213;-77
2022/11/13 11:24:33;;;;;;;10.10;7.00;;;;;;;12.79;100.00;96561.47;5055091;28;20236;-77
2022/11/13 11:27:26;;;;;;;10.13;7.20;;;;;;;13.10;100.00;96551.28;5061333;28;20220;-77
2022/11/13 11:30:19;;;;;;;9.93;7.40;;;;;;;13.30;98.28;96546.25;5061040;28;20220;-77
2022/11/13 11:33:11;;;;;;;9.43;7.27;;;;;;;13.33;98.71;96559.34;5062376;28;20204;-79
2022/11/13 11:36:07;;;;;;;8.87;6.87;;;;;;;13.36;96.91;96548.00;5064388;28;20213;-77
2022/11/13 11:39:03;;;;;;;9.50;7.57;;;;;;;13.13;99.03;96539.94;5064044;28;20217;-77
2022/11/13 11:41:55;;;;;;;10.23;7.23;;;;;;;13.09;98.80;96527.94;5067263;28;20208;-77
2022/11/13 11:44:52;;;;;;;8.90;6.80;;;;;;;13.13;96.71;96534.50;5069103;28;20235;-77
2022/11/13 11:47:38;;;;;;;11.83;7.63;;;;;;;12.95;99.61;96523.84;5059657;28;20220;-77
2022/11/13 11:50:35;;;;;;;10.97;7.13;;;;;;;13.11;98.43;96531.19;5070324;28;20232;-78
2022/11/13 11:53:34;;;;;;;11.70;7.83;;;;;;;12.87;99.57;96533.19;5070473;28;20228;-77
2022/11/13 11:56:29;;;;;;;10.07;7.17;;;;;;;12.66;100.00;96537.38;5069180;28;20255;-77
2022/11/13 11:59:50;;;;;;;9.90;7.37;;;;;;;12.84;100.00;96517.41;5070058;28;20216;-78
2022/11/13 12:02:58;;;;;;;9.00;6.77;;;;;;;13.05;100.00;96519.44;5058167;28;20267;-78
2022/11/13 12:05:55;;;;;;;9.57;7.00;;;;;;;13.23;97.70;96497.59;5068060;28;20215;-78
2022/11/13 12:08:48;;;;;;;11.87;7.73;;;;;;;13.27;98.56;96497.13;5068050;28;20208;-78
2022/11/13 12:11:41;;;;;;;9.37;6.93;;;;;;;13.44;98.32;96504.19;5062487;28;20225;-78
2022/11/13 12:14:37;;;;;;;10.53;7.60;;;;;;;13.49;96.39;96496.16;5057585;28;20220;-78
2022/11/13 12:17:41;;;;;;;10.40;7.77;;;;;;;13.50;97.78;96486.97;5070949;28;20227;-78
2022/11/13 12:20:38;;;;;;;10.17;7.67;;;;;;;13.04;100.00;96493.41;5066224;28;20212;-78
2022/11/13 12:23:35;;;;;;;8.47;7.20;;;;;;;13.05;100.00;96472.53;5055439;28;20221;-78
2022/11/13 12:26:27;;;;;;;10.70;7.87;;;;;;;12.96;100.00;96474.00;5067611;28;20246;-78
2022/11/13 12:29:38;;;;;;;9.27;7.30;;;;;;;12.76;100.00;96474.44;5055639;28;20255;-78
2022/11/13 12:32:39;;;;;;;8.57;6.77;;;;;;;12.88;100.00;96467.91;5062463;28;20327;-78
2022/11/13 12:35:26;;;;;;;11.17;7.57;;;;;;;12.77;100.00;96468.75;5057474;28;20212;-78
2022/11/13 12:38:21;;;;;;;11.17;7.27;;;;;;;12.55;100.00;96451.53;5070166;28;20324;-78
2022/11/13 12:41:16;;;;;;;9.63;7.43;;;;;;;11.66;100.00;96453.59;5064189;28;20280;-78
2022/11/13 12:44:19;;;;;;;9.27;7.10;;;;;;;11.05;100.00;96443.16;5068111;28;20302;-78
2022/11/13 12:47:08;;;;;;;11.10;7.93;;;;;;;10.78;100.00;96444.59;5054137;28;20287;-78
2022/11/13 12:50:02;;;;;;;9.73;7.17;;;;;;;10.70;100.00;96429.53;5069301;28;20251;-78
2022/11/13 12:52:58;;;;;;;11.60;8.10;;;;;;;10.50;100.00;96421.69;5067181;28;20208;-78
2022/11/13 12:55:58;;;;;;;11.60;8.07;;;;;;;10.51;100.00;96422.50;5059277;28;20259;-83
2022/11/13 12:58:56;;;;;;;10.67;7.47;;;;;;;10.32;100.00;96424.41;5065620;28;20200;-83
2022/11/13 13:01:46;;;;;;;10.67;7.63;;;;;;;10.21;100.00;96414.38;5067276;28;20255;-82
2022/11/13 13:04:54;;;;;;;10.50;7.03;;;;;;;10.11;100.00;96417.59;5066106;28;20227;-80